Preview of NWS' New Version of Forecast
This preview is not operational and should not be used for support decisions.

Terminal Aerodrome Forecast (TAF)

Issued by National Weather Service (NWS)

                            
000
FTUS42 KMFL 270541
TAFMIA
TAF
KMIA 270541Z 2706/2812 11018G28KT P6SM SHRA SCT020 BKN025 OVC080
      WS020/14050KT
      TEMPO 2706/2710 5SM RA BKN015 OVC025
     FM271000 14018G28KT P6SM SHRA SCT015 BKN035
     FM271500 17022G32KT P6SM VCTS BKN015CB OVC030
     FM280000 14014G24KT P6SM VCSH BKN025 OVC040=